Hangzhou Xiaoshan International Airport
ZSHC : now visible

Airfield :











YOU CAN JOIN US ON...

 
LOGIN :

Register | Disclaimer

   EN    FR    IT 

 









Legend :    VFR   Marginal VFR   IFR   Intensive IFR   Very Intensive IFR
Visi :
Ceiling :
>= 8 km
>= 3000ft
5 to 8 km
1000 to 3000 ft
1500m to 5 km
500 to 1000 ft
800 to 1500m
200 to 500 ft
< 800m
< 200 ft
Symbols :   Thunderstorms  Fog  Heavy snow  Heavy precipitations  Wind > 20 kt






- Airport Elevation : 23 ft
- IATA code : HGH


ZSHC - Hangzhou Xiaoshan International

CURRENT METAR :
  • 210500Z 09003MPS 060V140 9999 FEW030 18/10 Q1024 NOSIG

EXPIRED METARs :
  • 210430Z 11003MPS 080V150 9999 SCT030 18/09 Q1024 NOSIG
  • 210400Z 10003MPS 9999 FEW030 17/09 Q1025 NOSIG
  • 210330Z 09003MPS 020V120 CAVOK 18/09 Q1026 NOSIG
  • 210300Z 00000MPS CAVOK 16/09 Q1026 NOSIG
  • 210230Z VRB01MPS 8000 NSC 16/09 Q1027 NOSIG

TAF TAF ZSHC
Valid from the 21 at 00:00 until the 22 at 00:00 UTC


201901Z 2100/2124 09003MPS 3000 BR NSC TX20/2106Z TN10/2121Z



MET'MAP, your aeronautical weather chart ! - Copyright ORBIFLY December 2007 - Disclaimer

ORBIFLY MET'MAP TEAM :

Programming & Development : Alexandra Zaïnal
Concept & Development : Baudouin d'Aumeries
Co-Development & Prog : Marc-Olivier Méhu
Technical & hardware support : Manuel Goepfert

Contact : metmap@orbifly.com




SOURCES & CREDITS :

   NOAA       Earth
Advisory